Terminal Aerodrome Forecast
Issued by NWS

Current Version | Previous Version | Text Only | Print | Product List | Glossary On
Versions: 1 2 3 4 5 6 7 8 9 10 11 12 13 14 15 16 17 18 19 20 21 22 23 24 25 26 27 28 29 30 31
743
FTUS41 KGYX 261720
TAFRKD
TAF
KRKD 261720Z 2618/2718 VRB05KT P6SM SKC
     FM270500 08002KT P6SM OVC100
     FM270700 08003KT P6SM OVC050
     FM271000 10004KT 6SM BR OVC015 PROB30 2710/2713 1 1/2SM -SHRA
      BR OVC020
     FM271500 11007KT 2SM BR OVC003
      AMD LTD TO CLD VIS AND WIND=

USA.gov is the U.S. government's official web portal to all federal, state and local government web resources and services.